Time;durP1;ratioP1;P1;durP2;ratioP2;P2;SDS_P1;SDS_P2;PMS_P1;PMS_P2;Temp;Humidity;BMP_temperature;BMP_pressure;BME280_temperature;BME280_humidity;BME280_pressure;Samples;Min_cycle;Max_cycle;Signal;HPM_P1;HPM_P2
2022/01/09 00:02:15;;;;;;;0.50;0.28;;;;;;;7.34;100.00;97742.94;4954436;29;20046;-83
2022/01/09 00:05:19;;;;;;;0.50;0.17;;;;;;;7.22;100.00;97762.84;4953380;29;20054;-82
2022/01/09 00:08:23;;;;;;;2.88;0.30;;;;;;;7.25;100.00;97768.16;4944138;28;20050;-85
2022/01/09 00:11:26;;;;;;;0.35;0.35;;;;;;;7.27;100.00;97771.16;4954134;29;20050;-83
2022/01/09 00:14:30;;;;;;;4.32;1.65;;;;;;;7.22;100.00;97776.69;4943162;29;20054;-83
2022/01/09 00:17:34;;;;;;;0.10;0.10;;;;;;;7.12;100.00;97767.91;4954272;29;20508;-87
2022/01/09 00:20:38;;;;;;;11.80;0.52;;;;;;;7.20;100.00;97779.97;4955017;28;20504;-87
2022/01/09 00:23:42;;;;;;;0.28;0.25;;;;;;;7.24;100.00;97777.69;4954699;29;20055;-87
2022/01/09 00:26:45;;;;;;;3.95;0.40;;;;;;;7.33;100.00;97785.00;4943106;29;20450;-86
2022/01/09 00:29:49;;;;;;;2.60;0.45;;;;;;;7.42;100.00;97793.81;4955481;28;20054;-86
2022/01/09 00:32:53;;;;;;;5.68;0.40;;;;;;;7.44;100.00;97783.00;4945322;29;20059;-87
2022/01/09 00:35:57;;;;;;;1.48;0.88;;;;;;;7.52;100.00;97791.53;4945048;29;20054;-86
2022/01/09 00:39:01;;;;;;;1.08;0.40;;;;;;;7.60;100.00;97793.28;4958387;28;20074;-87
2022/01/09 00:42:05;;;;;;;0.20;0.20;;;;;;;7.52;100.00;97781.22;4944887;29;20050;-87
2022/01/09 00:45:10;;;;;;;0.10;0.10;;;;;;;7.39;100.00;97783.75;4958353;29;20067;-87
2022/01/09 00:48:13;;;;;;;1.17;1.08;;;;;;;7.18;100.00;97796.31;4946393;29;20128;-87
2022/01/09 00:51:16;;;;;;;0.10;0.10;;;;;;;7.19;100.00;97810.94;4954549;29;20509;-87
2022/01/09 00:54:19;;;;;;;0.30;0.30;;;;;;;7.13;100.00;97821.97;4958315;29;20046;-87
2022/01/09 00:57:23;;;;;;;0.10;0.10;;;;;;;7.15;100.00;97830.53;4941444;29;20054;-87
2022/01/09 01:00:27;;;;;;;2.58;0.98;;;;;;;7.19;100.00;97839.34;4944865;29;20557;-86
2022/01/09 01:03:30;;;;;;;2.33;0.25;;;;;;;7.20;100.00;97821.50;4957958;29;20520;-86
2022/01/09 01:06:34;;;;;;;0.10;0.10;;;;;;;7.08;100.00;97825.47;4958186;29;20054;-86
2022/01/09 01:09:37;;;;;;;0.85;0.85;;;;;;;7.01;100.00;97828.78;4955970;28;20054;-88
2022/01/09 01:12:41;;;;;;;0.30;0.30;;;;;;;7.08;100.00;97822.72;4956800;29;20046;-87
2022/01/09 01:15:45;;;;;;;2.25;0.60;;;;;;;7.09;100.00;97815.19;4954782;29;20058;-86
2022/01/09 01:18:48;;;;;;;0.40;0.22;;;;;;;7.09;100.00;97807.63;4936961;28;20058;-88
2022/01/09 01:21:52;;;;;;;0.32;0.32;;;;;;;6.97;100.00;97802.59;4954996;29;20069;-87
2022/01/09 01:24:56;;;;;;;8.77;0.88;;;;;;;6.84;100.00;97808.63;4938413;29;20059;-87
2022/01/09 01:28:00;;;;;;;2.38;0.22;;;;;;;6.81;100.00;97807.59;4930220;29;20046;-88
2022/01/09 01:31:03;;;;;;;0.20;0.20;;;;;;;6.79;100.00;97814.88;4926665;29;20089;-86
2022/01/09 01:34:06;;;;;;;0.75;0.45;;;;;;;6.71;100.00;97809.06;4930673;29;20493;-88
2022/01/09 01:37:10;;;;;;;0.20;0.20;;;;;;;6.83;100.00;97807.09;4945620;29;20062;-88
2022/01/09 01:40:17;;;;;;;2.92;0.55;;;;;;;6.88;100.00;97811.88;4953597;28;20504;-87
2022/01/09 01:43:20;;;;;;;0.52;0.38;;;;;;;6.83;100.00;97827.22;4956162;29;20062;-86
2022/01/09 01:46:23;;;;;;;2.15;0.30;;;;;;;6.77;100.00;97828.47;4943813;29;20500;-89
2022/01/09 01:49:27;;;;;;;0.13;0.13;;;;;;;6.77;100.00;97845.06;4956212;28;20062;-87
2022/01/09 01:52:36;;;;;;;0.20;0.20;;;;;;;6.76;100.00;97840.75;4945344;29;20055;-87
2022/01/09 01:55:41;;;;;;;0.40;0.38;;;;;;;6.71;100.00;97847.06;4941435;29;20055;-87
2022/01/09 01:58:44;;;;;;;0.50;0.50;;;;;;;6.78;100.00;97846.56;4933534;28;20520;-87
2022/01/09 02:01:47;;;;;;;2.85;0.30;;;;;;;6.74;100.00;97852.34;4940643;29;20063;-86
2022/01/09 02:04:51;;;;;;;0.10;0.10;;;;;;;6.65;100.00;97860.09;4956976;29;20058;-88
2022/01/09 02:07:58;;;;;;;0.75;0.75;;;;;;;6.54;100.00;97858.03;4946383;29;20058;-86
2022/01/09 02:11:01;;;;;;;2.92;1.10;;;;;;;6.62;100.00;97861.09;4947557;29;20505;-87
2022/01/09 02:14:05;;;;;;;4.78;0.63;;;;;;;6.62;100.00;97867.38;4955308;29;20050;-88
2022/01/09 02:17:08;;;;;;;0.60;0.60;;;;;;;6.62;100.00;97872.91;4954614;29;20070;-87
2022/01/09 02:20:12;;;;;;;0.20;0.20;;;;;;;6.76;100.00;97871.19;4956387;28;20409;-88
2022/01/09 02:23:18;;;;;;;1.45;0.25;;;;;;;6.75;100.00;97872.47;4944264;29;20062;-86
2022/01/09 02:26:24;;;;;;;2.05;0.22;;;;;;;6.79;100.00;97876.50;4936791;29;20432;-87
2022/01/09 02:29:27;;;;;;;0.52;0.52;;;;;;;6.80;100.00;97882.75;4946615;28;20059;-89
2022/01/09 02:32:30;;;;;;;0.50;0.50;;;;;;;6.85;100.00;97870.97;4929949;29;20058;-86
2022/01/09 02:35:35;;;;;;;3.03;0.45;;;;;;;6.84;100.00;97867.44;4944239;29;20058;-88
2022/01/09 02:38:38;;;;;;;0.10;0.10;;;;;;;6.79;100.00;97859.91;4952612;29;20062;-87
2022/01/09 02:41:41;;;;;;;0.10;0.10;;;;;;;6.61;100.00;97867.88;4950135;29;20492;-86
2022/01/09 02:44:45;;;;;;;0.40;0.40;;;;;;;6.54;100.00;97871.13;4955965;29;20065;-87
2022/01/09 02:47:50;;;;;;;17.08;0.88;;;;;;;6.52;100.00;97868.09;4956124;29;20407;-88
2022/01/09 02:51:03;;;;;;;0.20;0.20;;;;;;;6.50;100.00;97871.34;4937000;29;20517;-88
2022/01/09 02:57:38;;;;;;;0.10;0.10;;;;;;;6.38;100.00;97885.63;4945430;29;20058;-84
2022/01/09 03:00:44;;;;;;;1.27;0.70;;;;;;;6.36;100.00;97894.41;4951004;29;20063;-84
2022/01/09 03:03:47;;;;;;;0.75;0.20;;;;;;;6.31;100.00;97902.66;4936005;29;20058;-84
2022/01/09 03:06:51;;;;;;;0.10;0.05;;;;;;;6.28;100.00;97903.66;4929292;29;20067;-84
2022/01/09 03:09:54;;;;;;;2.45;0.50;;;;;;;6.27;100.00;97921.47;4943187;29;20055;-85
2022/01/09 03:12:59;;;;;;;10.57;0.63;;;;;;;6.22;100.00;97927.72;4935624;29;20497;-84
2022/01/09 03:16:03;;;;;;;0.20;0.20;;;;;;;6.10;100.00;97933.19;4924217;29;20077;-84
2022/01/09 03:19:06;;;;;;;0.10;0.10;;;;;;;6.07;100.00;97933.41;4930608;28;20466;-84
2022/01/09 03:22:09;;;;;;;0.10;0.10;;;;;;;6.17;100.00;97931.22;4954285;29;20137;-84
2022/01/09 03:25:14;;;;;;;0.15;0.15;;;;;;;6.27;100.00;97935.31;4946570;29;20056;-84
2022/01/09 03:28:18;;;;;;;0.80;0.25;;;;;;;6.37;100.00;97939.38;4939083;28;20054;-84
2022/01/09 03:31:21;;;;;;;0.20;0.20;;;;;;;6.42;100.00;97938.66;4943327;29;20544;-85
2022/01/09 03:34:24;;;;;;;2.70;0.50;;;;;;;6.44;100.00;97936.16;4938610;29;20051;-84
2022/01/09 03:37:28;;;;;;;0.75;0.25;;;;;;;6.43;100.00;97937.44;4945794;29;20046;-85
2022/01/09 03:40:31;;;;;;;0.20;0.20;;;;;;;6.33;100.00;97938.84;4937410;28;20066;-85
2022/01/09 03:43:34;;;;;;;0.20;0.20;;;;;;;6.24;100.00;97941.84;4954104;29;20046;-84
2022/01/09 03:46:38;;;;;;;4.85;0.60;;;;;;;6.14;100.00;97944.03;4936737;29;20050;-84
2022/01/09 03:49:41;;;;;;;6.75;0.63;;;;;;;6.07;100.00;97945.22;4946701;28;20062;-85
2022/01/09 03:52:48;;;;;;;3.03;1.55;;;;;;;5.96;100.00;97939.63;4954200;29;20062;-84
2022/01/09 03:55:51;;;;;;;0.13;0.13;;;;;;;5.91;100.00;97934.78;4942294;29;20062;-85
2022/01/09 03:58:54;;;;;;;0.10;0.10;;;;;;;5.88;100.00;97940.56;4942367;28;20063;-85
2022/01/09 04:01:57;;;;;;;0.13;0.13;;;;;;;6.03;100.00;97947.47;4954498;29;20501;-85
2022/01/09 04:05:01;;;;;;;8.98;0.85;;;;;;;6.05;100.00;97947.72;4955458;28;20062;-86
2022/01/09 04:08:04;;;;;;;1.65;0.57;;;;;;;6.01;100.00;97941.66;4946408;29;20058;-85
2022/01/09 04:11:10;;;;;;;0.35;0.35;;;;;;;5.85;100.00;97950.56;4958357;29;20054;-85
2022/01/09 04:14:14;;;;;;;1.27;0.22;;;;;;;5.88;100.00;97944.09;4946174;29;20508;-85
2022/01/09 04:17:33;;;;;;;6.65;1.23;;;;;;;6.07;100.00;97955.50;4938921;29;20051;-86
2022/01/09 04:20:36;;;;;;;1.67;0.98;;;;;;;6.13;100.00;97952.81;4945784;29;20070;-85
2022/01/09 04:23:39;;;;;;;0.10;0.10;;;;;;;6.17;100.00;97950.56;4934812;29;20501;-85
2022/01/09 04:26:43;;;;;;;0.95;0.63;;;;;;;6.23;100.00;97951.38;4957580;29;20074;-85
2022/01/09 04:29:46;;;;;;;0.45;0.45;;;;;;;6.18;100.00;97952.06;4949454;28;20059;-85
2022/01/09 04:32:49;;;;;;;1.00;0.93;;;;;;;6.15;100.00;97956.56;4955087;29;20066;-85
2022/01/09 04:35:53;;;;;;;0.85;0.73;;;;;;;6.10;100.00;97966.38;4948253;29;20058;-85
2022/01/09 04:38:57;;;;;;;1.00;0.43;;;;;;;5.92;100.00;97949.38;4955742;28;20058;-85
2022/01/09 04:42:00;;;;;;;0.32;0.20;;;;;;;5.74;100.00;97953.22;4947900;29;20054;-84
2022/01/09 04:45:06;;;;;;;0.40;0.25;;;;;;;5.64;100.00;97962.16;4957215;29;20058;-85
2022/01/09 04:48:11;;;;;;;0.10;0.10;;;;;;;5.55;100.00;97971.38;4945604;29;20058;-84
2022/01/09 04:51:15;;;;;;;4.95;1.20;;;;;;;5.37;100.00;97971.69;4957140;29;20054;-85
2022/01/09 04:54:18;;;;;;;0.10;0.10;;;;;;;5.22;100.00;97971.78;4957186;29;20063;-84
2022/01/09 04:57:21;;;;;;;0.30;0.30;;;;;;;5.16;100.00;97979.22;4941488;29;20054;-85
2022/01/09 05:00:25;;;;;;;16.60;1.00;;;;;;;5.08;100.00;97980.13;4956481;28;20066;-84
2022/01/09 05:03:28;;;;;;;0.10;0.10;;;;;;;5.13;100.00;98001.53;4956922;29;20417;-85
2022/01/09 05:06:31;;;;;;;0.10;0.10;;;;;;;5.25;100.00;97994.88;4944614;29;20059;-84
2022/01/09 05:09:35;;;;;;;18.50;0.63;;;;;;;5.32;100.00;98005.50;4933505;29;20058;-84
2022/01/09 05:12:39;;;;;;;0.20;0.20;;;;;;;5.41;100.00;97997.06;4944891;29;20058;-85
2022/01/09 05:15:43;;;;;;;0.35;0.28;;;;;;;5.47;100.00;98003.41;4956694;28;20508;-84
2022/01/09 05:18:58;;;;;;;29.42;1.35;;;;;;;5.40;100.00;98003.81;4955489;28;20058;-85
2022/01/09 05:22:02;;;;;;;0.10;0.10;;;;;;;5.49;100.00;98002.91;4944499;29;20062;-84
2022/01/09 05:25:07;;;;;;;0.10;0.10;;;;;;;5.49;100.00;97991.88;4955913;29;20117;-84
2022/01/09 05:28:10;;;;;;;1.17;0.75;;;;;;;5.49;100.00;98003.69;4944377;29;20054;-84
2022/01/09 05:31:14;;;;;;;0.28;0.28;;;;;;;5.55;100.00;97993.44;4955962;29;20050;-84
2022/01/09 05:34:17;;;;;;;0.28;0.28;;;;;;;5.53;100.00;97998.69;4955329;29;20513;-84
2022/01/09 05:37:21;;;;;;;0.10;0.00;;;;;;;5.56;100.00;97992.22;4940126;29;20585;-83
2022/01/09 05:40:24;;;;;;;0.10;0.10;;;;;;;5.61;100.00;98001.81;4946569;28;20055;-87
2022/01/09 05:43:28;;;;;;;1.15;0.75;;;;;;;5.54;100.00;97991.94;4953056;29;20063;-84
2022/01/09 05:46:31;;;;;;;0.10;0.10;;;;;;;5.41;100.00;97999.84;4937453;29;20413;-84
2022/01/09 05:49:34;;;;;;;0.90;0.60;;;;;;;5.33;100.00;97999.50;4947798;28;20058;-84
2022/01/09 05:52:38;;;;;;;0.20;0.20;;;;;;;5.33;100.00;97991.22;4956575;29;20058;-86
2022/01/09 05:55:41;;;;;;;0.10;0.10;;;;;;;5.39;100.00;98002.31;4940552;29;20059;-85
2022/01/09 05:58:45;;;;;;;0.15;0.15;;;;;;;5.38;100.00;98000.81;4954773;28;20058;-83
2022/01/09 06:01:48;;;;;;;0.10;0.10;;;;;;;5.38;100.00;98017.34;4939376;29;20128;-83
2022/01/09 06:04:52;;;;;;;1.38;1.05;;;;;;;5.27;100.00;98020.00;4954336;29;20058;-82
2022/01/09 06:07:55;;;;;;;0.20;0.20;;;;;;;5.23;100.00;98022.19;4938943;29;20054;-83
2022/01/09 06:10:58;;;;;;;2.75;0.95;;;;;;;5.17;100.00;98022.16;4948413;29;20548;-82
2022/01/09 06:14:02;;;;;;;0.10;0.10;;;;;;;5.15;100.00;98026.63;4953694;29;20054;-82
2022/01/09 06:17:05;;;;;;;2.15;0.52;;;;;;;5.12;100.00;98017.31;4941444;29;20055;-82
2022/01/09 06:20:11;;;;;;;1.05;0.52;;;;;;;5.12;100.00;98022.06;4938692;29;20058;-83
2022/01/09 06:23:19;;;;;;;0.20;0.20;;;;;;;5.15;100.00;98027.41;4954629;29;20054;-82
2022/01/09 06:26:23;;;;;;;0.20;0.20;;;;;;;5.21;100.00;98030.22;4954715;29;20054;-83
2022/01/09 06:29:26;;;;;;;0.35;0.35;;;;;;;5.22;100.00;98032.47;4953931;28;20062;-83
2022/01/09 06:32:31;;;;;;;0.25;0.25;;;;;;;5.22;100.00;98037.22;4931085;29;20050;-82
2022/01/09 06:35:34;;;;;;;0.13;0.13;;;;;;;5.16;100.00;98036.41;4953788;29;20050;-82
2022/01/09 06:38:37;;;;;;;1.98;0.40;;;;;;;4.97;100.00;98043.44;4954212;28;20406;-82
2022/01/09 06:41:41;;;;;;;0.10;0.10;;;;;;;4.94;100.00;98045.16;4957862;28;20054;-83
2022/01/09 06:44:44;;;;;;;0.10;0.10;;;;;;;4.99;100.00;98040.97;4953714;29;20054;-83
2022/01/09 06:47:48;;;;;;;0.20;0.20;;;;;;;4.94;100.00;98044.41;4942549;29;20062;-83
2022/01/09 06:50:51;;;;;;;3.25;0.60;;;;;;;5.02;100.00;98051.81;4942515;29;20074;-83
2022/01/09 06:53:54;;;;;;;0.10;0.10;;;;;;;5.05;100.00;98045.31;4953786;29;20405;-83
2022/01/09 06:56:58;;;;;;;0.15;0.15;;;;;;;5.05;100.00;98055.56;4942657;29;20505;-83
2022/01/09 07:00:04;;;;;;;0.10;0.10;;;;;;;5.05;100.00;98063.84;4952950;28;20062;-82
2022/01/09 07:03:07;;;;;;;0.10;0.10;;;;;;;5.09;100.00;98065.16;4954243;29;20054;-83
2022/01/09 07:06:11;;;;;;;0.20;0.20;;;;;;;5.12;100.00;98060.69;4942433;29;20070;-82
2022/01/09 07:09:14;;;;;;;0.15;0.15;;;;;;;5.17;100.00;98054.50;4952760;28;20070;-83
2022/01/09 07:12:19;;;;;;;0.30;0.20;;;;;;;5.17;100.00;98057.25;4953702;29;20406;-83
2022/01/09 07:15:22;;;;;;;0.47;0.43;;;;;;;5.17;100.00;98074.56;4942633;29;20084;-82
2022/01/09 07:18:26;;;;;;;7.75;0.40;;;;;;;5.23;100.00;98082.91;4952799;28;20058;-82
2022/01/09 07:21:29;;;;;;;2.17;0.73;;;;;;;5.12;100.00;98093.78;4953584;29;20062;-82
2022/01/09 07:24:33;;;;;;;4.60;0.60;;;;;;;5.06;100.00;98095.72;4953729;29;20058;-83
2022/01/09 07:27:37;;;;;;;0.28;0.28;;;;;;;4.89;100.00;98098.25;4953033;29;20058;-83
2022/01/09 07:30:40;;;;;;;0.55;0.55;;;;;;;4.85;100.00;98102.47;4953060;29;20050;-82
2022/01/09 07:33:43;;;;;;;2.20;0.55;;;;;;;4.86;100.00;98098.44;4942012;29;20128;-84
2022/01/09 07:36:48;;;;;;;0.28;0.28;;;;;;;4.82;100.00;98111.69;4953613;29;20054;-83
2022/01/09 07:39:51;;;;;;;0.10;0.10;;;;;;;4.69;100.00;98116.75;4954408;28;20626;-83
2022/01/09 07:42:54;;;;;;;0.80;0.65;;;;;;;4.55;100.00;98124.56;4972088;28;20061;-83
2022/01/09 07:45:58;;;;;;;0.68;0.28;;;;;;;4.42;100.00;98126.84;4972851;28;20062;-83
2022/01/09 07:49:02;;;;;;;0.45;0.45;;;;;;;4.43;100.00;98133.13;4965807;28;20508;-83
2022/01/09 07:52:06;;;;;;;0.35;0.35;;;;;;;4.39;100.00;98122.31;4953262;29;20062;-83
2022/01/09 07:55:10;;;;;;;1.50;0.50;;;;;;;4.35;100.00;98116.19;4953173;29;20058;-82
2022/01/09 07:58:14;;;;;;;2.30;0.70;;;;;;;4.30;100.00;98116.88;4953351;28;20413;-82
2022/01/09 08:01:17;;;;;;;7.15;1.85;;;;;;;4.30;100.00;98114.13;4972630;28;20543;-82
2022/01/09 08:04:20;;;;;;;0.38;0.38;;;;;;;4.33;100.00;98109.66;4971705;28;20049;-82
2022/01/09 08:07:24;;;;;;;0.52;0.47;;;;;;;4.39;100.00;98111.28;4960639;28;20405;-81
2022/01/09 08:10:27;;;;;;;4.05;0.75;;;;;;;4.39;100.00;98119.53;4954711;28;20054;-81
2022/01/09 08:13:31;;;;;;;8.27;1.10;;;;;;;4.35;100.00;98129.97;4940724;29;20058;-82
2022/01/09 08:16:34;;;;;;;5.43;1.10;;;;;;;4.33;100.00;98135.19;4952384;29;20054;-81
2022/01/09 08:19:37;;;;;;;4.88;1.17;;;;;;;4.32;100.00;98133.69;4952249;28;20058;-81
2022/01/09 08:22:42;;;;;;;1.48;1.35;;;;;;;4.32;100.00;98128.19;4932826;29;20055;-81
2022/01/09 08:25:45;;;;;;;2.70;1.15;;;;;;;4.35;100.00;98134.75;4921737;29;20059;-81
2022/01/09 08:28:49;;;;;;;0.52;0.35;;;;;;;4.35;100.00;98137.50;4937944;28;20077;-81
2022/01/09 08:31:53;;;;;;;2.30;0.55;;;;;;;4.35;100.00;98137.50;4941216;29;20541;-82
2022/01/09 08:34:56;;;;;;;12.63;1.67;;;;;;;4.37;100.00;98140.53;4952148;29;20055;-81
2022/01/09 08:38:00;;;;;;;1.08;0.93;;;;;;;4.34;100.00;98145.00;4952949;29;20050;-81
2022/01/09 08:41:03;;;;;;;3.70;2.05;;;;;;;4.34;100.00;98158.78;4952985;28;20078;-81
2022/01/09 08:44:07;;;;;;;0.68;0.55;;;;;;;4.36;100.00;98161.81;4959464;28;20062;-81
2022/01/09 08:47:11;;;;;;;8.20;1.42;;;;;;;4.33;100.00;98173.78;4972170;28;20325;-82
2022/01/09 08:50:17;;;;;;;2.05;0.50;;;;;;;4.35;100.00;98176.81;4955997;28;20054;-82
2022/01/09 08:53:20;;;;;;;0.47;0.47;;;;;;;4.38;100.00;98175.88;4956395;29;20054;-81
2022/01/09 08:56:26;;;;;;;0.95;0.85;;;;;;;4.43;100.00;98166.97;4944545;29;20054;-81
2022/01/09 08:59:29;;;;;;;0.28;0.28;;;;;;;4.44;100.00;98173.97;4955312;28;20054;-81
2022/01/09 09:02:32;;;;;;;0.50;0.10;;;;;;;4.52;100.00;98172.38;4956290;29;20058;-82
2022/01/09 09:05:36;;;;;;;1.60;0.65;;;;;;;4.47;100.00;98184.06;4956245;29;20054;-82
2022/01/09 09:08:40;;;;;;;2.70;0.55;;;;;;;4.60;100.00;98190.06;4944296;28;20054;-82
2022/01/09 09:11:44;;;;;;;0.20;0.20;;;;;;;4.86;100.00;98204.00;4955975;29;20124;-82
2022/01/09 09:14:48;;;;;;;0.22;0.13;;;;;;;5.00;100.00;98197.69;4955253;29;20059;-82
2022/01/09 09:17:53;;;;;;;0.13;0.13;;;;;;;5.18;100.00;98202.25;4955988;29;20086;-82
2022/01/09 09:20:57;;;;;;;0.10;0.10;;;;;;;5.28;100.00;98200.91;4954861;29;20054;-82
2022/01/09 09:24:00;;;;;;;0.47;0.47;;;;;;;5.46;100.00;98206.16;4954545;29;20106;-82
2022/01/09 09:27:04;;;;;;;1.10;0.32;;;;;;;5.69;100.00;98199.72;4955959;29;20054;-82
2022/01/09 09:30:10;;;;;;;1.35;0.45;;;;;;;5.84;100.00;98192.16;4955537;28;20070;-82
2022/01/09 09:33:14;;;;;;;0.10;0.10;;;;;;;5.96;100.00;98181.97;4955816;29;20058;-83
2022/01/09 09:36:17;;;;;;;0.30;0.30;;;;;;;5.97;100.00;98173.22;4955866;29;20055;-83
2022/01/09 09:39:20;;;;;;;0.22;0.22;;;;;;;5.83;100.00;98179.53;4954952;28;20409;-84
2022/01/09 09:42:24;;;;;;;0.40;0.40;;;;;;;6.04;100.00;98183.81;4936124;29;20059;-83
2022/01/09 09:45:28;;;;;;;1.52;0.45;;;;;;;6.10;100.00;98181.91;4924744;29;20502;-83
2022/01/09 09:48:32;;;;;;;0.40;0.35;;;;;;;6.25;100.00;98181.81;4938698;28;20118;-82
2022/01/09 09:51:35;;;;;;;5.95;0.75;;;;;;;6.31;100.00;98179.84;4955828;29;20054;-86
2022/01/09 09:54:38;;;;;;;13.68;1.30;;;;;;;6.27;100.00;98184.06;4956281;29;20062;-83
2022/01/09 09:57:42;;;;;;;0.10;0.10;;;;;;;6.23;100.00;98192.59;4954741;29;20054;-83
2022/01/09 10:00:55;;;;;;;0.10;0.10;;;;;;;6.35;100.00;98196.22;4955856;29;20504;-85
2022/01/09 10:04:04;;;;;;;0.20;0.20;;;;;;;6.27;100.00;98206.94;4956145;29;20050;-87
2022/01/09 10:07:21;;;;;;;0.10;0.10;;;;;;;6.31;100.00;98203.97;4936136;29;20050;-83
2022/01/09 10:10:32;;;;;;;9.25;0.77;;;;;;;6.38;100.00;98217.38;4934246;29;20062;-83
2022/01/09 10:13:36;;;;;;;1.15;0.98;;;;;;;6.42;100.00;98224.19;4936257;29;20054;-83
2022/01/09 10:16:39;;;;;;;12.48;1.80;;;;;;;6.48;100.00;98204.88;4936707;29;20073;-84
2022/01/09 10:19:56;;;;;;;12.80;3.00;;;;;;;6.46;100.00;98201.84;4947490;28;20070;-83
2022/01/09 10:22:59;;;;;;;1.48;1.35;;;;;;;6.41;100.00;98213.63;4955175;29;20055;-84
2022/01/09 10:26:12;;;;;;;4.88;1.08;;;;;;;6.41;100.00;98216.41;4943635;29;20062;-83
2022/01/09 10:29:19;;;;;;;3.72;1.17;;;;;;;6.51;100.00;98226.03;4954981;28;20054;-83
2022/01/09 10:32:28;;;;;;;11.07;1.52;;;;;;;6.59;100.00;98225.13;4943359;29;20069;-83
2022/01/09 10:35:32;;;;;;;8.90;1.95;;;;;;;6.68;100.00;98240.78;4954676;28;20509;-83
2022/01/09 10:38:36;;;;;;;5.00;0.65;;;;;;;6.84;100.00;98229.13;4945493;28;20087;-84
2022/01/09 10:41:58;;;;;;;1.77;0.65;;;;;;;6.98;100.00;98222.69;4956631;28;20058;-82
2022/01/09 10:45:15;;;;;;;;;;;;;;;7.16;100.00;98230.66;4942839;29;20054;-83
2022/01/09 10:48:20;;;;;;;5.10;1.77;;;;;;;7.28;100.00;98225.94;4954703;28;20377;-82
2022/01/09 10:51:25;;;;;;;1.08;0.38;;;;;;;7.38;100.00;98235.59;4954768;29;20512;-82
2022/01/09 10:54:30;;;;;;;0.40;0.40;;;;;;;7.61;100.00;98238.00;4954301;29;20050;-84
2022/01/09 10:57:37;;;;;;;6.70;1.38;;;;;;;7.79;100.00;98227.78;4943144;29;20065;-84
2022/01/09 11:00:40;;;;;;;5.05;1.33;;;;;;;7.91;100.00;98226.56;4936451;29;20075;-85
2022/01/09 11:03:48;;;;;;;1.80;0.22;;;;;;;8.13;100.00;98246.06;4935720;29;20063;-86
2022/01/09 11:06:51;;;;;;;3.40;0.90;;;;;;;8.40;100.00;98248.25;4936386;29;20055;-85
2022/01/09 11:09:56;;;;;;;2.28;0.38;;;;;;;8.50;100.00;98249.53;4949456;28;20508;-85
2022/01/09 11:13:02;;;;;;;4.22;1.00;;;;;;;8.55;100.00;98273.00;4955406;28;20063;-85
2022/01/09 11:19:29;;;;;;;0.75;0.50;;;;;;;8.43;100.00;98247.22;4955419;28;20054;-84
2022/01/09 11:22:32;;;;;;;0.20;0.13;;;;;;;8.38;100.00;98248.72;4955380;29;20070;-86
2022/01/09 11:25:40;;;;;;;2.22;0.52;;;;;;;8.38;100.00;98245.94;4954351;29;20179;-85
2022/01/09 11:28:50;;;;;;;4.15;0.55;;;;;;;8.40;100.00;98245.47;4937159;29;20095;-86
2022/01/09 11:32:06;;;;;;;12.57;0.73;;;;;;;8.39;100.00;98249.47;4935165;29;20066;-85
2022/01/09 11:35:45;;;;;;;5.82;0.75;;;;;;;8.44;100.00;98250.75;4935212;29;20070;-86
2022/01/09 11:39:11;;;;;;;5.15;1.17;;;;;;;8.48;100.00;98240.94;4938344;29;20422;-86
2022/01/09 11:42:16;;;;;;;7.18;0.75;;;;;;;8.46;100.00;98245.47;4961533;28;20058;-86
2022/01/09 11:45:56;;;;;;;2.47;1.20;;;;;;;8.52;100.00;98238.69;4972798;28;20054;-86
2022/01/09 11:49:04;;;;;;;0.20;0.20;;;;;;;8.59;100.00;98238.19;4955151;28;20058;-85
2022/01/09 11:52:08;;;;;;;1.45;0.43;;;;;;;8.86;100.00;98250.59;4952215;29;20054;-86
2022/01/09 11:55:12;;;;;;;0.60;0.30;;;;;;;9.11;100.00;98247.59;4952685;29;20050;-85
2022/01/09 11:58:20;;;;;;;0.30;0.30;;;;;;;9.23;100.00;98247.56;4940730;28;20054;-85
2022/01/09 12:01:37;;;;;;;8.05;1.13;;;;;;;9.26;100.00;98268.81;4952952;29;20453;-84
2022/01/09 12:04:40;;;;;;;0.80;0.80;;;;;;;9.20;100.00;98266.03;4953145;29;20058;-84
2022/01/09 12:07:48;;;;;;;0.52;0.52;;;;;;;9.30;100.00;98280.41;4953899;29;20050;-84
2022/01/09 12:10:53;;;;;;;0.35;0.35;;;;;;;9.50;100.00;98277.38;4953944;29;20054;-84
2022/01/09 12:13:57;;;;;;;4.68;0.95;;;;;;;9.59;100.00;98275.13;4953180;29;20409;-82
2022/01/09 12:17:00;;;;;;;3.13;0.50;;;;;;;9.67;100.00;98269.78;4941134;29;20504;-82
2022/01/09 12:20:15;;;;;;;0.43;0.32;;;;;;;9.80;100.00;98267.22;4952994;28;20058;-82
2022/01/09 12:23:21;;;;;;;1.98;0.68;;;;;;;9.87;100.00;98286.19;4941324;29;20058;-82
2022/01/09 12:26:27;;;;;;;1.17;0.40;;;;;;;10.13;100.00;98281.09;4955202;28;20413;-83
2022/01/09 12:29:44;;;;;;;8.80;1.20;;;;;;;10.22;100.00;98268.91;4956458;28;20051;-83
2022/01/09 12:32:47;;;;;;;4.00;0.80;;;;;;;10.29;100.00;98274.69;4956541;29;20062;-82
2022/01/09 12:35:57;;;;;;;0.30;0.20;;;;;;;10.33;100.00;98275.19;4957250;29;20058;-83
2022/01/09 12:39:05;;;;;;;12.68;0.65;;;;;;;10.50;100.00;98266.78;4955912;28;20054;-84
2022/01/09 12:42:08;;;;;;;0.52;0.52;;;;;;;10.70;100.00;98274.00;4956125;29;20058;-83
2022/01/09 12:45:31;;;;;;;16.92;2.35;;;;;;;10.70;100.00;98265.66;4925578;29;20406;-83
2022/01/09 12:48:35;;;;;;;5.30;1.17;;;;;;;10.80;100.00;98256.47;4938843;28;20047;-82
2022/01/09 12:51:46;;;;;;;15.35;4.25;;;;;;;10.85;100.00;98255.66;4956328;29;20062;-83
2022/01/09 12:55:09;;;;;;;5.53;2.35;;;;;;;10.75;100.00;98254.47;4956307;29;20106;-82
2022/01/09 12:58:22;;;;;;;3.45;1.45;;;;;;;10.81;100.00;98273.91;4956358;29;20059;-84
2022/01/09 13:01:26;;;;;;;6.65;1.30;;;;;;;10.91;100.00;98273.13;4937561;29;20063;-83
2022/01/09 13:04:33;;;;;;;3.90;1.05;;;;;;;10.85;100.00;98280.00;4925602;29;20406;-83
2022/01/09 13:07:37;;;;;;;10.23;3.03;;;;;;;10.81;100.00;98273.91;4945062;29;20592;-82
2022/01/09 13:10:40;;;;;;;3.83;1.23;;;;;;;10.77;100.00;98262.31;4951606;29;20062;-82
2022/01/09 13:13:47;;;;;;;3.63;1.23;;;;;;;10.87;100.00;98267.03;4955418;29;20058;-83
2022/01/09 13:16:50;;;;;;;2.08;1.60;;;;;;;10.90;100.00;98262.47;4940682;29;20406;-85
2022/01/09 13:19:53;;;;;;;0.25;0.25;;;;;;;10.91;100.00;98273.13;4953245;28;20058;-84
2022/01/09 13:23:04;;;;;;;3.38;1.08;;;;;;;10.94;100.00;98247.00;4954349;29;20058;-87
2022/01/09 13:26:15;;;;;;;3.05;0.70;;;;;;;10.84;100.00;98272.91;4948535;28;20058;-83
2022/01/09 13:29:22;;;;;;;3.00;1.37;;;;;;;10.85;100.00;98285.56;4953473;28;20074;-90
2022/01/09 13:32:25;;;;;;;0.60;0.47;;;;;;;10.85;100.00;98269.59;4948944;29;20300;-85
2022/01/09 13:35:28;;;;;;;6.75;0.68;;;;;;;10.83;100.00;98288.13;4954842;29;20497;-86
2022/01/09 13:38:32;;;;;;;1.10;0.43;;;;;;;10.82;100.00;98292.16;4956474;28;20059;-89
2022/01/09 13:41:39;;;;;;;0.20;0.20;;;;;;;10.68;100.00;98305.91;4955932;29;20062;-85
2022/01/09 13:44:44;;;;;;;1.85;1.00;;;;;;;10.68;100.00;98309.97;4956390;29;20063;-85
2022/01/09 13:47:54;;;;;;;2.10;1.17;;;;;;;10.71;100.00;98303.34;4943207;29;20063;-85
2022/01/09 13:50:57;;;;;;;1.98;0.43;;;;;;;10.71;100.00;98315.25;4925319;29;20063;-85
2022/01/09 13:54:05;;;;;;;2.55;0.52;;;;;;;10.63;100.00;98320.59;4925182;29;20051;-85
2022/01/09 13:57:16;;;;;;;3.40;0.60;;;;;;;10.53;100.00;98330.50;4936388;29;20063;-86
2022/01/09 14:00:24;;;;;;;10.10;0.68;;;;;;;10.40;100.00;98321.97;4943825;28;20059;-86
2022/01/09 14:03:28;;;;;;;0.25;0.13;;;;;;;10.40;100.00;98323.97;4936504;29;20055;-86
2022/01/09 14:06:31;;;;;;;6.22;0.80;;;;;;;10.40;100.00;98329.53;4924509;29;20074;-86
2022/01/09 14:09:37;;;;;;;1.15;0.82;;;;;;;10.36;100.00;98338.16;4945933;28;20054;-86
2022/01/09 14:12:42;;;;;;;4.55;1.27;;;;;;;10.27;100.00;98352.34;4954971;29;20051;-86
2022/01/09 14:15:49;;;;;;;2.40;1.00;;;;;;;10.19;100.00;98343.03;4955484;29;20402;-87
2022/01/09 14:18:56;;;;;;;6.22;0.73;;;;;;;10.20;100.00;98355.66;4955166;28;20058;-86
2022/01/09 14:22:02;;;;;;;5.85;1.08;;;;;;;10.20;100.00;98354.91;4955229;29;20062;-86
2022/01/09 14:25:13;;;;;;;3.95;0.95;;;;;;;10.18;100.00;98363.00;4955147;29;20054;-86
2022/01/09 14:28:17;;;;;;;2.67;1.45;;;;;;;10.05;100.00;98357.94;4954959;28;20061;-86
2022/01/09 14:31:21;;;;;;;0.28;0.17;;;;;;;10.02;100.00;98378.44;4955265;29;20075;-86
2022/01/09 14:34:25;;;;;;;1.30;0.52;;;;;;;10.01;100.00;98388.03;4955339;29;20062;-86
2022/01/09 14:37:28;;;;;;;0.73;0.52;;;;;;;9.95;100.00;98378.94;4943559;29;20070;-87